Time;durP1;ratioP1;P1;durP2;ratioP2;P2;SDS_P1;SDS_P2;PMS_P1;PMS_P2;Temp;Humidity;BMP_temperature;BMP_pressure;BME280_temperature;BME280_humidity;BME280_pressure;Samples;Min_cycle;Max_cycle;Signal;HPM_P1;HPM_P2
2022/03/11 00:02:13;;;;;;;21.60;11.65;;;;;;;-0.36;49.76;95682.16;4882411;29;20671;-76
2022/03/11 00:04:38;;;;;;;20.27;11.73;;;;;;;-0.32;49.35;95685.25;4914922;29;20036;-75
2022/03/11 00:07:04;;;;;;;23.98;12.45;;;;;;;-0.41;49.70;95691.22;4913140;29;20071;-75
2022/03/11 00:09:44;;;;;;;25.90;13.80;;;;;;;-0.47;49.76;95690.03;4913949;29;20051;-75
2022/03/11 00:12:20;;;;;;;25.25;14.45;;;;;;;-0.55;50.59;95686.56;4895459;29;20167;-75
2022/03/11 00:14:46;;;;;;;23.75;13.13;;;;;;;-0.56;50.52;95690.06;4897456;29;20040;-75
2022/03/11 00:17:11;;;;;;;37.13;14.85;;;;;;;-0.53;50.54;95685.50;4913539;29;20393;-75
2022/03/11 00:19:37;;;;;;;27.83;15.10;;;;;;;-0.55;50.68;95686.56;4914565;29;20496;-75
2022/03/11 00:22:02;;;;;;;32.03;16.02;;;;;;;-0.63;50.90;95680.44;4914538;29;20028;-74
2022/03/11 00:24:28;;;;;;;34.47;16.58;;;;;;;-0.62;50.89;95681.25;4913717;29;20047;-75
2022/03/11 00:26:53;;;;;;;30.15;16.80;;;;;;;-0.59;50.98;95680.16;4914340;29;20114;-75
2022/03/11 00:29:19;;;;;;;36.90;17.02;;;;;;;-0.53;50.49;95669.34;4914550;29;20095;-75
2022/03/11 00:31:45;;;;;;;33.83;15.90;;;;;;;-0.55;50.88;95661.03;4913367;29;20032;-75
2022/03/11 00:34:11;;;;;;;25.63;13.80;;;;;;;-0.51;51.18;95672.56;4914150;29;20115;-75
2022/03/11 00:36:37;;;;;;;23.02;14.07;;;;;;;-0.58;51.53;95659.56;4897547;29;20104;-76
2022/03/11 00:39:03;;;;;;;27.15;15.38;;;;;;;-0.55;51.45;95666.16;4914291;29;20028;-75
2022/03/11 00:41:28;;;;;;;34.85;16.30;;;;;;;-0.59;52.31;95667.38;4897328;29;20043;-75
2022/03/11 00:43:55;;;;;;;33.70;17.80;;;;;;;-0.57;52.48;95668.03;4897286;29;20109;-74
2022/03/11 00:46:21;;;;;;;54.92;25.65;;;;;;;-0.70;53.04;95666.59;4912344;29;20024;-75
2022/03/11 00:48:46;;;;;;;48.67;24.33;;;;;;;-0.73;52.56;95669.44;4912906;29;20054;-75
2022/03/11 00:51:11;;;;;;;45.67;23.45;;;;;;;-0.81;52.59;95666.81;4914039;29;20032;-75
2022/03/11 00:53:37;;;;;;;37.92;19.10;;;;;;;-0.80;52.62;95667.63;4913803;29;20032;-74
2022/03/11 00:56:02;;;;;;;34.28;17.65;;;;;;;-0.77;52.12;95665.56;4912660;29;20028;-75
2022/03/11 00:58:28;;;;;;;30.45;16.00;;;;;;;-0.81;52.07;95659.16;4896903;29;20047;-75
2022/03/11 01:00:53;;;;;;;33.17;17.65;;;;;;;-0.83;52.64;95658.47;4912354;29;20064;-76
2022/03/11 01:03:19;;;;;;;29.20;17.00;;;;;;;-0.95;52.69;95662.16;4912664;29;20092;-75
2022/03/11 01:05:44;;;;;;;28.30;16.58;;;;;;;-1.08;52.88;95651.44;4913951;29;20040;-75
2022/03/11 01:08:09;;;;;;;28.17;14.90;;;;;;;-0.92;52.67;95659.31;4913838;29;20031;-74
2022/03/11 01:10:35;;;;;;;30.15;15.07;;;;;;;-1.03;52.50;95662.03;4912313;29;20040;-75
2022/03/11 01:13:00;;;;;;;26.40;14.32;;;;;;;-1.01;52.48;95660.16;4912729;29;20040;-75
2022/03/11 01:15:26;;;;;;;26.02;13.85;;;;;;;-1.03;52.43;95667.16;4896508;29;20489;-75
2022/03/11 01:17:52;;;;;;;27.02;15.10;;;;;;;-1.06;53.13;95667.44;4912481;29;20039;-74
2022/03/11 01:20:17;;;;;;;28.08;15.50;;;;;;;-1.15;53.01;95670.81;4912167;29;20044;-75
2022/03/11 01:22:43;;;;;;;49.47;22.10;;;;;;;-1.15;53.20;95666.50;4912934;29;20040;-74
2022/03/11 01:25:08;;;;;;;38.42;20.50;;;;;;;-1.17;53.72;95665.03;4913660;29;20040;-74
2022/03/11 01:27:34;;;;;;;39.53;20.42;;;;;;;-1.25;53.77;95663.19;4912733;29;20032;-74
2022/03/11 01:29:59;;;;;;;32.78;18.08;;;;;;;-1.30;53.55;95665.34;4880933;29;20102;-75
2022/03/11 01:32:25;;;;;;;27.65;16.60;;;;;;;-1.29;54.10;95662.66;4896564;29;20420;-74
2022/03/11 01:34:50;;;;;;;36.40;18.88;;;;;;;-1.32;54.25;95657.00;4911681;29;20047;-75
2022/03/11 01:37:16;;;;;;;40.47;18.20;;;;;;;-1.37;53.92;95656.63;4912237;29;20052;-75
2022/03/11 01:39:41;;;;;;;32.00;16.25;;;;;;;-1.46;53.46;95663.38;4880631;29;20059;-75
2022/03/11 01:42:07;;;;;;;30.20;15.52;;;;;;;-1.46;53.97;95660.81;4896256;29;20051;-75
2022/03/11 01:44:33;;;;;;;30.48;16.05;;;;;;;-1.48;53.99;95657.56;4912822;29;20024;-75
2022/03/11 01:46:58;;;;;;;33.47;16.90;;;;;;;-1.41;53.86;95663.75;4896314;29;20037;-75
2022/03/11 01:49:24;;;;;;;25.25;15.63;;;;;;;-1.44;54.16;95668.34;4912032;29;20488;-75
2022/03/11 01:51:49;;;;;;;31.58;16.48;;;;;;;-1.40;54.04;95660.25;4913068;29;20208;-75
2022/03/11 01:54:15;;;;;;;26.33;14.73;;;;;;;-1.41;53.97;95658.66;4879729;29;20059;-75
2022/03/11 01:56:40;;;;;;;22.80;15.43;;;;;;;-1.46;53.87;95654.91;4911765;29;20101;-75
2022/03/11 01:59:06;;;;;;;22.92;15.15;;;;;;;-1.38;53.23;95650.72;4895228;29;20461;-75
2022/03/11 02:01:32;;;;;;;23.63;14.80;;;;;;;-1.39;53.82;95650.88;4911797;29;20460;-76
2022/03/11 02:03:57;;;;;;;26.20;15.32;;;;;;;-1.43;53.42;95650.34;4911777;29;20579;-74
2022/03/11 02:06:23;;;;;;;28.42;15.57;;;;;;;-1.44;53.55;95655.59;4879424;29;20032;-74
2022/03/11 02:08:48;;;;;;;43.65;21.00;;;;;;;-1.59;54.23;95650.09;4895837;29;20515;-75
2022/03/11 02:11:14;;;;;;;104.70;46.40;;;;;;;-1.53;54.09;95654.63;4913176;29;20420;-74
2022/03/11 02:13:52;;;;;;;76.35;30.90;;;;;;;-1.75;54.87;95660.03;4912997;29;20507;-73
2022/03/11 02:16:19;;;;;;;56.03;26.58;;;;;;;-1.78;55.21;95652.66;4911841;29;20492;-75
2022/03/11 02:18:44;;;;;;;46.88;22.45;;;;;;;-1.77;55.14;95654.28;4895888;29;20032;-74
2022/03/11 02:21:10;;;;;;;34.88;18.83;;;;;;;-1.76;54.79;95658.44;4895697;29;20404;-76
2022/03/11 02:23:49;;;;;;;27.75;14.85;;;;;;;-1.70;53.98;95650.25;4911377;29;20028;-74
2022/03/11 02:26:15;;;;;;;23.00;13.02;;;;;;;-1.65;53.57;95665.91;4911437;29;20516;-74
2022/03/11 02:28:41;;;;;;;23.23;13.15;;;;;;;-1.78;53.43;95666.22;4896258;29;20032;-74
2022/03/11 02:31:07;;;;;;;27.77;14.32;;;;;;;-1.75;53.17;95660.03;4895736;29;20038;-74
2022/03/11 02:33:32;;;;;;;29.48;18.35;;;;;;;-1.76;54.10;95666.09;4895778;29;20051;-74
2022/03/11 02:35:58;;;;;;;27.63;16.23;;;;;;;-1.73;54.45;95665.81;4896146;29;20033;-74
2022/03/11 02:38:23;;;;;;;33.30;18.45;;;;;;;-1.72;54.60;95669.97;4911307;29;20040;-73
2022/03/11 02:40:49;;;;;;;30.27;16.15;;;;;;;-1.71;54.29;95671.56;4909721;29;20036;-75
2022/03/11 02:43:14;;;;;;;28.10;15.23;;;;;;;-1.70;54.31;95668.09;4912945;29;20036;-75
2022/03/11 02:45:40;;;;;;;28.30;15.85;;;;;;;-1.76;54.06;95674.53;4912735;29;20032;-76
2022/03/11 02:48:05;;;;;;;23.00;13.80;;;;;;;-1.76;53.79;95668.63;4913159;29;20036;-75
2022/03/11 02:50:31;;;;;;;44.22;17.17;;;;;;;-1.77;54.31;95672.13;4895687;29;20119;-76
2022/03/11 02:52:56;;;;;;;32.20;17.30;;;;;;;-1.82;54.14;95678.41;4912761;29;20056;-76
2022/03/11 02:55:22;;;;;;;53.63;25.08;;;;;;;-1.81;54.51;95679.22;4910935;29;20493;-75
2022/03/11 02:57:47;;;;;;;49.15;23.73;;;;;;;-1.84;55.22;95682.84;4911095;29;20039;-75
2022/03/11 03:00:13;;;;;;;43.13;20.70;;;;;;;-1.88;54.68;95686.59;4912086;29;20062;-76
2022/03/11 03:02:38;;;;;;;33.30;19.00;;;;;;;-1.87;54.62;95685.66;4910994;29;20119;-76
2022/03/11 03:05:05;;;;;;;27.05;17.50;;;;;;;-1.92;54.71;95684.47;4912400;29;20032;-76
2022/03/11 03:07:30;;;;;;;30.35;17.00;;;;;;;-2.02;54.90;95689.53;4911237;29;20421;-76
2022/03/11 03:09:56;;;;;;;26.15;17.02;;;;;;;-2.10;55.28;95680.97;4895015;29;20071;-76
2022/03/11 03:12:22;;;;;;;34.90;19.80;;;;;;;-2.15;55.32;95686.44;4894316;29;20040;-75
2022/03/11 03:14:47;;;;;;;39.47;17.77;;;;;;;-2.19;55.41;95683.34;4878909;29;20044;-76
2022/03/11 03:17:13;;;;;;;37.03;17.08;;;;;;;-2.21;55.42;95686.97;4910237;29;20040;-76
2022/03/11 03:19:38;;;;;;;33.45;19.10;;;;;;;-2.26;55.70;95691.66;4914722;29;20473;-76
2022/03/11 03:22:04;;;;;;;25.10;16.48;;;;;;;-2.29;55.82;95689.34;4915130;29;20040;-75
2022/03/11 03:24:29;;;;;;;25.30;15.38;;;;;;;-2.26;55.12;95686.56;4898160;29;20039;-76
2022/03/11 03:26:56;;;;;;;28.80;15.18;;;;;;;-2.15;53.98;95683.88;4882866;29;20131;-76
2022/03/11 03:29:22;;;;;;;32.78;18.33;;;;;;;-2.16;55.11;95687.38;4915544;29;20032;-75
2022/03/11 03:31:48;;;;;;;35.03;21.25;;;;;;;-2.19;55.98;95683.34;4898062;29;20400;-75
2022/03/11 03:34:13;;;;;;;41.35;25.30;;;;;;;-2.23;55.36;95691.41;4915290;29;20047;-75
2022/03/11 03:36:39;;;;;;;75.53;42.83;;;;;;;-2.26;55.15;95689.13;4912868;29;20032;-75
2022/03/11 03:39:04;;;;;;;86.57;48.72;;;;;;;-2.27;55.27;95688.31;4898070;29;20076;-75
2022/03/11 03:41:29;;;;;;;124.47;57.83;;;;;;;-2.33;55.87;95693.91;4914956;29;20039;-75
2022/03/11 03:43:55;;;;;;;87.47;39.95;;;;;;;-2.30;56.00;95692.84;4913934;29;20036;-75
2022/03/11 03:46:32;;;;;;;76.70;33.47;;;;;;;-2.31;55.59;95696.34;4915219;29;20040;-75
2022/03/11 03:48:59;;;;;;;45.78;26.00;;;;;;;-2.36;55.71;95693.38;4912579;29;20078;-75
2022/03/11 03:51:25;;;;;;;51.15;25.10;;;;;;;-2.37;55.64;95694.31;4914318;29;20471;-75
2022/03/11 03:53:50;;;;;;;46.00;24.13;;;;;;;-2.45;56.77;95693.22;4914739;29;20500;-75
2022/03/11 03:56:15;;;;;;;34.30;22.05;;;;;;;-2.48;56.33;95687.59;4915002;29;20043;-75
2022/03/11 03:58:41;;;;;;;48.05;27.88;;;;;;;-2.53;55.50;95690.53;4917262;29;20036;-75
2022/03/11 04:01:06;;;;;;;40.63;25.05;;;;;;;-2.66;56.35;95697.59;4916565;29;20448;-75
2022/03/11 04:03:32;;;;;;;37.95;23.85;;;;;;;-2.66;56.75;95695.03;4898037;29;20564;-76
2022/03/11 04:05:57;;;;;;;37.45;23.08;;;;;;;-2.58;56.03;95690.13;4914931;29;20032;-76
2022/03/11 04:08:22;;;;;;;50.08;25.67;;;;;;;-2.60;55.77;95702.19;4897885;29;20504;-76
2022/03/11 04:10:48;;;;;;;39.00;19.48;;;;;;;-2.67;55.62;95698.50;4914439;29;20058;-75
2022/03/11 04:13:14;;;;;;;42.83;23.02;;;;;;;-2.69;55.94;95704.69;4914597;29;20032;-76
2022/03/11 04:15:39;;;;;;;35.13;22.65;;;;;;;-2.63;55.45;95714.34;4882372;29;20531;-75
2022/03/11 04:18:04;;;;;;;36.15;20.27;;;;;;;-2.67;55.27;95708.69;4913553;29;20463;-75
2022/03/11 04:20:30;;;;;;;36.10;21.40;;;;;;;-2.72;55.46;95715.94;4912912;29;20366;-75
2022/03/11 04:22:55;;;;;;;45.45;24.63;;;;;;;-2.80;56.54;95719.09;4882546;29;20043;-75
2022/03/11 04:25:21;;;;;;;51.75;30.27;;;;;;;-2.85;56.36;95725.50;4913268;29;20032;-75
2022/03/11 04:27:46;;;;;;;57.92;32.45;;;;;;;-2.78;56.44;95724.06;4896862;29;20044;-76
2022/03/11 04:30:12;;;;;;;60.35;33.15;;;;;;;-2.77;55.97;95723.13;4896807;29;20043;-75
2022/03/11 04:32:37;;;;;;;60.83;37.53;;;;;;;-2.83;55.85;95718.53;4914513;29;20534;-75
2022/03/11 04:35:03;;;;;;;63.17;38.53;;;;;;;-2.78;56.27;95716.41;4914218;29;20040;-75
2022/03/11 04:37:29;;;;;;;50.13;32.28;;;;;;;-2.77;56.46;95718.88;4914531;29;20040;-75
2022/03/11 04:39:54;;;;;;;73.53;41.92;;;;;;;-2.80;55.98;95723.38;4912664;29;20028;-75
2022/03/11 04:42:19;;;;;;;75.30;44.15;;;;;;;-2.80;56.32;95716.53;4914313;29;20058;-75
2022/03/11 04:44:45;;;;;;;76.18;46.38;;;;;;;-2.78;56.61;95719.78;4913233;29;20032;-75
2022/03/11 04:47:10;;;;;;;93.32;53.83;;;;;;;-2.79;56.17;95717.34;4914217;29;20051;-76
2022/03/11 04:49:36;;;;;;;96.60;58.45;;;;;;;-2.73;56.23;95721.94;4913329;29;20056;-75
2022/03/11 04:52:02;;;;;;;97.18;57.33;;;;;;;-2.72;56.64;95724.38;4897221;29;20039;-78
2022/03/11 04:54:27;;;;;;;102.10;61.97;;;;;;;-2.73;56.36;95729.59;4881748;29;20024;-75
2022/03/11 04:56:52;;;;;;;111.00;64.82;;;;;;;-2.74;56.46;95722.88;4912640;29;20032;-75
2022/03/11 04:59:18;;;;;;;104.72;62.03;;;;;;;-2.72;56.48;95726.09;4913015;29;20087;-75
2022/03/11 05:01:43;;;;;;;105.95;57.45;;;;;;;-2.64;56.64;95731.34;4911488;29;20044;-75
2022/03/11 05:04:09;;;;;;;94.40;46.55;;;;;;;-2.59;56.28;95731.78;4911296;29;20432;-74
2022/03/11 05:06:34;;;;;;;102.22;48.35;;;;;;;-2.56;56.21;95728.97;4912654;29;20520;-74
2022/03/11 05:09:00;;;;;;;97.28;49.50;;;;;;;-2.58;56.22;95730.84;4911976;29;20043;-75
2022/03/11 05:11:25;;;;;;;124.85;61.80;;;;;;;-2.53;55.66;95735.56;4912714;29;20036;-76
2022/03/11 05:13:50;;;;;;;125.03;65.47;;;;;;;-2.50;55.93;95738.66;4913803;29;20036;-75
2022/03/11 05:16:16;;;;;;;116.18;62.60;;;;;;;-2.49;56.48;95735.16;4912748;29;20447;-74
2022/03/11 05:18:41;;;;;;;135.02;72.80;;;;;;;-2.39;55.54;95742.03;4896786;29;21050;-75
2022/03/11 05:21:07;;;;;;;164.52;83.90;;;;;;;-2.33;55.81;95741.50;4913763;29;20468;-75
2022/03/11 05:23:32;;;;;;;151.90;77.80;;;;;;;-2.23;55.61;95744.91;4896264;29;20412;-75
2022/03/11 05:25:57;;;;;;;133.13;72.28;;;;;;;-2.20;55.53;95744.63;4912228;29;20036;-75
2022/03/11 05:28:23;;;;;;;112.75;56.80;;;;;;;-2.15;54.88;95750.94;4897736;29;20043;-75
2022/03/11 05:30:48;;;;;;;102.00;57.50;;;;;;;-2.16;55.10;95753.63;4913623;29;20036;-76
2022/03/11 05:33:14;;;;;;;108.90;59.63;;;;;;;-2.11;55.28;95754.06;4897667;29;20036;-76
2022/03/11 05:35:41;;;;;;;92.60;52.20;;;;;;;-2.17;55.29;95762.19;4896694;29;20503;-75
2022/03/11 05:38:06;;;;;;;103.90;56.13;;;;;;;-2.13;54.90;95761.00;4912516;29;20095;-78
2022/03/11 05:40:31;;;;;;;94.93;51.53;;;;;;;-2.08;55.16;95766.53;4913262;29;20032;-75
2022/03/11 05:42:57;;;;;;;53.85;26.58;;;;;;;-1.96;53.47;95767.19;4911030;29;20043;-75
2022/03/11 05:45:22;;;;;;;56.95;28.05;;;;;;;-1.96;53.13;95765.47;4911189;29;20043;-77
2022/03/11 05:47:48;;;;;;;47.22;25.42;;;;;;;-1.93;53.32;95762.66;4896485;29;20032;-75
2022/03/11 05:50:14;;;;;;;42.20;25.80;;;;;;;-1.85;52.87;95772.19;4913167;29;20047;-75
2022/03/11 05:52:40;;;;;;;55.70;27.15;;;;;;;-1.71;53.32;95766.72;4896386;29;20020;-76
2022/03/11 05:55:06;;;;;;;77.35;31.88;;;;;;;-1.53;53.16;95766.84;4896059;29;20051;-77
2022/03/11 05:57:31;;;;;;;110.82;37.20;;;;;;;-1.34;52.32;95771.94;4911387;29;20028;-75
2022/03/11 05:59:57;;;;;;;116.28;42.97;;;;;;;-1.20;52.12;95763.09;4912596;29;20040;-76
2022/03/11 06:02:22;;;;;;;76.20;30.55;;;;;;;-1.09;51.45;95773.16;4912784;29;20496;-75
2022/03/11 06:04:47;;;;;;;85.00;30.35;;;;;;;-0.91;51.02;95768.16;4913149;29;20492;-75
2022/03/11 06:07:13;;;;;;;66.93;29.27;;;;;;;-0.71;51.33;95774.81;4912051;29;20047;-75
2022/03/11 06:09:38;;;;;;;46.75;23.52;;;;;;;-0.57;51.12;95772.78;4911780;29;20035;-75
2022/03/11 06:12:04;;;;;;;50.10;21.48;;;;;;;-0.44;50.39;95778.38;4896007;29;20051;-75
2022/03/11 06:14:30;;;;;;;47.40;21.17;;;;;;;-0.29;49.96;95778.72;4913232;29;20511;-75
2022/03/11 06:16:55;;;;;;;44.75;21.63;;;;;;;-0.14;50.03;95780.66;4911888;29;20032;-75
2022/03/11 06:19:21;;;;;;;37.15;19.40;;;;;;;-0.08;49.52;95781.84;4913329;29;20044;-75
2022/03/11 06:21:46;;;;;;;39.75;19.27;;;;;;;0.20;48.61;95786.00;4895967;29;20028;-76
2022/03/11 06:24:12;;;;;;;38.90;18.77;;;;;;;0.44;48.31;95790.53;4912917;29;20039;-75
2022/03/11 06:26:38;;;;;;;45.50;20.65;;;;;;;0.57;48.04;95788.44;4896151;29;20044;-76
2022/03/11 06:29:04;;;;;;;36.88;18.55;;;;;;;0.63;46.63;95796.47;4911730;29;20481;-75
2022/03/11 06:31:29;;;;;;;40.50;22.48;;;;;;;0.80;47.59;95799.03;4912808;29;20484;-76
2022/03/11 06:33:54;;;;;;;45.72;21.67;;;;;;;0.90;46.38;95796.41;4895619;29;20505;-76
2022/03/11 06:36:20;;;;;;;35.05;18.38;;;;;;;0.99;45.80;95792.97;4912943;29;20404;-75
2022/03/11 06:38:45;;;;;;;31.52;17.55;;;;;;;1.25;44.86;95792.97;4895612;29;20044;-75
2022/03/11 06:41:12;;;;;;;30.88;18.60;;;;;;;1.65;44.57;95802.69;4912397;29;20052;-75
2022/03/11 06:43:37;;;;;;;27.52;17.33;;;;;;;1.94;44.53;95794.63;4910629;29;20043;-75
2022/03/11 06:46:03;;;;;;;31.48;17.33;;;;;;;2.30;43.44;95800.38;4911521;29;20040;-75
2022/03/11 06:48:28;;;;;;;38.70;20.50;;;;;;;2.71;42.57;95793.56;4912614;29;20032;-75
2022/03/11 06:50:54;;;;;;;35.30;17.08;;;;;;;3.07;42.24;95792.44;4912221;29;20040;-75
2022/03/11 06:53:25;;;;;;;24.63;14.90;;;;;;;3.13;40.18;95791.81;4897448;29;20102;-76
2022/03/11 06:55:50;;;;;;;22.25;13.25;;;;;;;3.43;39.14;95793.72;4916094;29;20052;-76
2022/03/11 06:58:16;;;;;;;17.88;11.40;;;;;;;3.79;36.82;95788.97;4914883;29;20036;-76
2022/03/11 07:00:41;;;;;;;17.83;8.98;;;;;;;3.74;36.59;95792.97;4899123;29;20156;-76
2022/03/11 07:03:07;;;;;;;16.02;9.15;;;;;;;3.58;36.37;95794.66;4913431;29;20036;-75
2022/03/11 07:05:32;;;;;;;13.32;8.45;;;;;;;3.85;36.13;95797.78;4915216;29;20722;-75
2022/03/11 07:07:58;;;;;;;10.75;7.97;;;;;;;4.12;35.31;95794.78;4914966;29;20498;-76
2022/03/11 07:10:23;;;;;;;16.33;9.07;;;;;;;4.31;35.22;95800.50;4898550;29;20048;-75
2022/03/11 07:12:49;;;;;;;14.32;8.73;;;;;;;4.57;34.68;95798.44;4915248;29;20056;-76
2022/03/11 07:15:14;;;;;;;20.98;9.98;;;;;;;4.79;34.17;95802.78;4914408;29;20152;-76
2022/03/11 07:17:40;;;;;;;10.65;7.68;;;;;;;4.08;34.28;95796.09;4898704;29;20407;-75
2022/03/11 07:20:06;;;;;;;8.80;7.80;;;;;;;3.70;34.98;95799.44;4915678;29;20043;-75
2022/03/11 07:22:34;;;;;;;10.23;7.88;;;;;;;2.96;36.47;95807.22;4898014;29;20522;-74
2022/03/11 07:25:00;;;;;;;12.48;9.10;;;;;;;2.97;36.75;95808.84;4915387;29;20393;-76
2022/03/11 07:27:26;;;;;;;15.43;8.23;;;;;;;2.82;36.67;95799.34;4914649;29;20044;-74
2022/03/11 07:29:51;;;;;;;14.13;9.65;;;;;;;2.88;36.86;95799.50;4914551;29;20056;-74
2022/03/11 07:32:17;;;;;;;20.20;9.68;;;;;;;2.96;36.86;95802.09;4899366;29;20064;-75
2022/03/11 07:34:43;;;;;;;14.38;9.32;;;;;;;2.95;36.74;95803.06;4914830;29;20111;-76
2022/03/11 07:37:12;;;;;;;20.10;10.07;;;;;;;2.79;37.43;95805.63;4899670;29;20040;-76
2022/03/11 07:39:41;;;;;;;15.07;9.13;;;;;;;2.76;37.28;95800.78;4914748;29;20546;-75
2022/03/11 07:46:00;;;;;;;26.88;9.25;;;;;;;3.45;36.22;95799.50;4836827;29;20047;-82
2022/03/11 07:48:30;;;;;;;12.80;9.27;;;;;;;3.58;35.50;95797.22;4882965;29;20165;-81
2022/03/11 07:50:59;;;;;;;15.20;8.80;;;;;;;3.86;35.63;95789.09;4934220;29;20044;-82
2022/03/11 07:57:04;;;;;;;14.75;9.43;;;;;;;4.39;34.49;95800.44;4898875;29;20041;-76
2022/03/11 07:59:31;;;;;;;11.70;9.48;;;;;;;4.49;34.10;95798.47;4908432;29;20055;-76
2022/03/11 08:01:57;;;;;;;16.90;9.60;;;;;;;4.54;33.77;95796.16;4897967;29;20028;-76
2022/03/11 08:04:24;;;;;;;14.65;9.98;;;;;;;4.89;32.81;95796.63;4911925;29;20456;-75
2022/03/11 08:06:49;;;;;;;16.63;10.18;;;;;;;5.18;33.39;95795.88;4913577;29;20032;-75
2022/03/11 08:09:15;;;;;;;12.70;9.23;;;;;;;5.52;32.43;95792.84;4914790;29;20044;-75
2022/03/11 08:11:40;;;;;;;12.02;8.80;;;;;;;5.64;31.96;95784.50;4914474;29;20040;-75
2022/03/11 08:14:06;;;;;;;13.48;9.10;;;;;;;5.46;31.03;95804.69;4913423;29;20036;-75
2022/03/11 08:16:31;;;;;;;15.02;9.90;;;;;;;5.28;32.20;95796.47;4913485;29;20040;-75
2022/03/11 08:18:58;;;;;;;11.25;8.77;;;;;;;5.16;32.28;95788.34;4913355;29;20515;-75
2022/03/11 08:21:23;;;;;;;10.32;8.73;;;;;;;4.98;32.41;95785.25;4913407;29;20476;-75
2022/03/11 08:23:49;;;;;;;13.88;9.02;;;;;;;4.92;31.65;95791.13;4913419;29;20036;-76
2022/03/11 08:26:15;;;;;;;24.20;10.65;;;;;;;4.87;32.56;95793.38;4914484;29;20095;-75
2022/03/11 08:28:41;;;;;;;16.88;9.52;;;;;;;4.94;32.12;95789.16;4897420;29;20046;-75
2022/03/11 08:31:07;;;;;;;14.48;9.02;;;;;;;5.06;32.42;95786.00;4914543;29;20028;-75
2022/03/11 08:33:35;;;;;;;21.95;9.80;;;;;;;5.02;32.45;95789.09;4897255;29;20035;-76
2022/03/11 08:36:01;;;;;;;12.57;9.18;;;;;;;5.02;32.15;95791.66;4913424;29;20180;-76
2022/03/11 08:38:26;;;;;;;14.60;8.90;;;;;;;5.15;31.98;95791.88;4914269;29;20067;-76
2022/03/11 08:40:52;;;;;;;12.70;9.00;;;;;;;5.50;31.39;95787.06;4914194;29;20028;-76
2022/03/11 08:43:19;;;;;;;12.52;8.88;;;;;;;5.87;31.49;95784.44;4897565;29;20043;-76
2022/03/11 08:45:44;;;;;;;13.38;9.02;;;;;;;6.06;31.14;95785.69;4896448;29;20039;-76
2022/03/11 08:48:10;;;;;;;13.23;8.60;;;;;;;6.22;30.04;95776.97;4912916;29;20055;-76
2022/03/11 08:50:35;;;;;;;11.25;8.40;;;;;;;6.28;29.65;95763.31;4913713;29;20043;-76
2022/03/11 08:53:01;;;;;;;13.05;9.48;;;;;;;6.26;29.95;95762.69;4914314;29;20044;-76
2022/03/11 08:55:26;;;;;;;12.20;8.70;;;;;;;6.27;30.44;95766.88;4912752;29;20043;-75
2022/03/11 08:58:11;;;;;;;12.95;9.73;;;;;;;6.33;30.52;95759.19;4913117;29;20036;-75
2022/03/11 09:00:37;;;;;;;10.50;8.73;;;;;;;6.39;29.02;95752.50;4913050;29;20040;-75
2022/03/11 09:03:02;;;;;;;10.45;8.52;;;;;;;6.58;29.55;95770.00;4914091;29;20062;-76
2022/03/11 09:05:27;;;;;;;9.95;8.32;;;;;;;6.72;29.50;95764.97;4913870;29;20431;-76
2022/03/11 09:07:53;;;;;;;10.70;9.05;;;;;;;6.37;29.00;95777.72;4913392;29;20484;-76
2022/03/11 09:10:19;;;;;;;36.55;9.38;;;;;;;5.90;30.23;95778.94;4913792;29;20040;-75
2022/03/11 09:12:45;;;;;;;11.32;8.60;;;;;;;5.52;30.24;95778.16;4897035;29;20035;-76
2022/03/11 09:15:11;;;;;;;12.57;8.65;;;;;;;5.37;30.51;95775.59;4912718;29;20120;-75
2022/03/11 09:17:37;;;;;;;9.80;8.70;;;;;;;5.30;30.05;95769.53;4913725;29;20036;-77
2022/03/11 09:20:03;;;;;;;15.35;9.40;;;;;;;5.36;30.47;95773.97;4896485;29;20032;-76
2022/03/11 09:22:30;;;;;;;13.13;8.65;;;;;;;5.26;30.96;95778.59;4911478;29;20087;-75
2022/03/11 09:24:55;;;;;;;16.60;8.38;;;;;;;5.42;30.95;95772.47;4912389;29;20139;-75
2022/03/11 09:27:23;;;;;;;11.57;8.05;;;;;;;5.55;30.68;95771.88;4913325;29;20047;-75
2022/03/11 09:29:49;;;;;;;11.38;8.68;;;;;;;5.19;30.09;95777.66;4912267;29;20066;-75
2022/03/11 09:32:14;;;;;;;11.10;8.50;;;;;;;5.02;30.26;95777.00;4881175;29;20040;-74
2022/03/11 09:34:40;;;;;;;11.85;8.10;;;;;;;5.00;29.98;95778.94;4911691;29;20116;-75
2022/03/11 09:37:15;;;;;;;10.80;8.60;;;;;;;5.09;30.74;95777.13;4912163;29;20044;-75
2022/03/11 09:39:41;;;;;;;12.25;8.77;;;;;;;5.10;31.91;95773.56;4887933;29;20504;-75
2022/03/11 09:42:06;;;;;;;15.77;9.52;;;;;;;5.28;31.34;95770.69;4910736;29;20039;-75
2022/03/11 09:44:32;;;;;;;14.30;10.02;;;;;;;5.42;31.68;95768.13;4911673;29;20067;-75
2022/03/11 09:46:57;;;;;;;15.90;9.48;;;;;;;5.41;31.91;95774.25;4913824;29;20044;-76
2022/03/11 09:49:23;;;;;;;12.82;9.77;;;;;;;5.51;30.98;95765.44;4896510;29;20055;-75
2022/03/11 09:51:48;;;;;;;27.52;10.10;;;;;;;5.57;31.16;95769.91;4910719;29;20035;-75
2022/03/11 09:54:15;;;;;;;16.10;11.23;;;;;;;5.47;31.19;95770.16;4913516;29;20098;-76
2022/03/11 09:56:41;;;;;;;14.32;10.05;;;;;;;5.20;29.52;95766.38;4896510;29;20559;-78
2022/03/11 09:59:07;;;;;;;11.57;9.60;;;;;;;5.17;30.34;95768.50;4896164;29;20044;-77
2022/03/11 10:01:33;;;;;;;13.23;8.85;;;;;;;5.02;30.63;95766.69;4896642;29;20420;-77
2022/03/11 10:03:59;;;;;;;18.33;10.50;;;;;;;5.05;31.13;95770.72;4912957;29;20028;-76
2022/03/11 10:06:41;;;;;;;22.67;12.05;;;;;;;5.10;31.48;95763.25;4897230;29;20484;-76
2022/03/11 10:09:19;;;;;;;32.17;18.15;;;;;;;5.06;31.44;95756.84;4912986;29;20038;-77
2022/03/11 10:11:56;;;;;;;32.00;17.63;;;;;;;5.15;31.47;95755.78;4911706;29;20806;-77
2022/03/11 10:14:35;;;;;;;31.48;16.98;;;;;;;5.09;32.22;95757.31;4897328;29;20111;-76
2022/03/11 10:17:03;;;;;;;16.88;11.02;;;;;;;5.00;31.86;95760.13;4912800;29;20036;-76
2022/03/11 10:19:28;;;;;;;20.48;14.25;;;;;;;4.87;31.93;95762.47;4895924;29;20043;-76
2022/03/11 10:21:56;;;;;;;22.88;13.05;;;;;;;4.85;31.47;95756.69;4896059;29;20941;-77
2022/03/11 10:27:10;;;;;;;25.83;16.95;;;;;;;4.78;32.60;95757.38;4909131;23;20100;-76
2022/03/11 10:29:36;;;;;;;40.20;20.13;;;;;;;4.71;32.89;95756.47;4905879;29;20040;-76
2022/03/11 10:32:03;;;;;;;29.67;17.80;;;;;;;4.82;32.41;95756.06;4906811;29;20075;-76
2022/03/11 10:34:35;;;;;;;30.92;13.98;;;;;;;4.77;32.60;95758.38;4906729;29;20048;-77
2022/03/11 10:37:19;;;;;;;;;;;;;;;4.69;32.96;95760.19;4890293;29;20047;-76
2022/03/11 10:39:48;;;;;;;36.83;16.65;;;;;;;4.67;33.55;95762.94;4928888;29;20060;-77
2022/03/11 10:42:17;;;;;;;20.92;11.88;;;;;;;4.79;31.88;95756.41;4891991;29;20627;-78
2022/03/11 10:45:03;;;;;;;33.72;15.23;;;;;;;4.70;33.35;95761.78;4905228;29;20032;-76
2022/03/11 10:47:39;;;;;;;23.77;15.10;;;;;;;4.72;32.76;95755.50;4906556;29;20516;-78
2022/03/11 10:50:08;;;;;;;33.08;16.90;;;;;;;4.81;32.43;95749.31;4904010;29;20079;-77
2022/03/11 10:52:43;;;;;;;25.42;14.95;;;;;;;4.83;32.42;95738.81;4905548;29;20063;-77
2022/03/11 10:55:28;;;;;;;34.40;19.83;;;;;;;4.67;33.25;95749.25;4904473;29;20499;-77
2022/03/11 10:57:58;;;;;;;25.58;16.08;;;;;;;4.61;32.99;95748.16;4874108;29;20489;-77
2022/03/11 11:00:30;;;;;;;39.78;19.00;;;;;;;4.36;33.53;95741.56;4889670;29;20032;-77
2022/03/11 11:03:00;;;;;;;29.33;14.43;;;;;;;4.27;32.90;95745.16;4883684;29;20033;-78
2022/03/11 11:05:29;;;;;;;31.95;18.05;;;;;;;4.18;33.45;95742.63;4895098;29;20040;-77
2022/03/11 11:07:55;;;;;;;46.13;23.70;;;;;;;4.12;33.68;95740.75;4899559;29;20040;-77
2022/03/11 11:10:21;;;;;;;29.13;15.38;;;;;;;4.01;33.51;95730.81;4905454;29;20115;-77
2022/03/11 11:12:47;;;;;;;21.80;13.82;;;;;;;3.89;33.14;95729.56;4901108;29;20115;-77
2022/03/11 11:15:13;;;;;;;21.42;12.63;;;;;;;3.82;33.78;95732.03;4887713;29;20115;-77
2022/03/11 11:17:40;;;;;;;24.00;15.32;;;;;;;3.58;34.15;95730.34;4887120;29;20041;-77
2022/03/11 11:20:28;;;;;;;24.15;12.93;;;;;;;3.72;33.69;95725.47;4888515;29;20039;-77
2022/03/11 11:22:53;;;;;;;24.25;12.93;;;;;;;3.67;33.56;95732.88;4887528;29;20032;-77
2022/03/11 11:25:20;;;;;;;27.98;15.68;;;;;;;3.79;34.32;95729.00;4886892;29;20100;-77
2022/03/11 11:27:46;;;;;;;45.10;19.55;;;;;;;4.08;33.95;95728.38;4909387;29;20032;-77
2022/03/11 11:30:14;;;;;;;15.60;10.35;;;;;;;4.20;31.39;95735.53;4902514;29;20557;-77